Time;durP1;ratioP1;P1;durP2;ratioP2;P2;SDS_P1;SDS_P2;PMS_P1;PMS_P2;Temp;Humidity;BMP_temperature;BMP_pressure;BME280_temperature;BME280_humidity;BME280_pressure;Samples;Min_cycle;Max_cycle;Signal;HPM_P1;HPM_P2
2022/04/08 00:01:41;;;;;;;10.48;2.00;;;7.80;99.90;;;;;;4143687;28;20454;-64
2022/04/08 00:03:42;;;;;;;11.65;2.20;;;7.80;99.90;;;;;;4144799;28;20061;-64
2022/04/08 00:05:43;;;;;;;6.80;1.50;;;7.70;99.90;;;;;;4144009;28;20037;-64
2022/04/08 00:07:43;;;;;;;5.07;1.48;;;7.70;99.90;;;;;;4144529;28;20078;-64
2022/04/08 00:09:44;;;;;;;10.13;1.63;;;7.70;99.90;;;;;;4144091;28;20080;-65
2022/04/08 00:11:44;;;;;;;5.32;2.00;;;7.70;99.90;;;;;;4143888;28;20494;-64
2022/04/08 00:13:45;;;;;;;7.30;1.67;;;7.70;99.90;;;;;;4144486;28;20273;-64
2022/04/08 00:15:46;;;;;;;8.88;2.17;;;7.70;99.90;;;;;;4143624;28;20112;-64
2022/04/08 00:17:46;;;;;;;5.47;1.77;;;7.70;99.90;;;;;;4144273;28;20026;-64
2022/04/08 00:19:47;;;;;;;13.23;1.85;;;7.70;99.90;;;;;;4144454;28;20034;-64
2022/04/08 00:21:48;;;;;;;7.93;1.27;;;7.70;99.90;;;;;;4143843;28;20052;-64
2022/04/08 00:23:49;;;;;;;6.07;1.92;;;7.70;99.90;;;;;;4144156;28;20058;-64
2022/04/08 00:25:50;;;;;;;9.35;2.10;;;7.60;99.90;;;;;;4142424;28;20046;-64
2022/04/08 00:27:50;;;;;;;5.82;1.60;;;7.70;99.90;;;;;;4143930;28;20026;-63
2022/04/08 00:29:51;;;;;;;6.88;1.42;;;7.60;99.90;;;;;;4143780;28;20173;-64
2022/04/08 00:31:57;;;;;;;10.25;1.90;;;7.60;99.90;;;;;;4142079;28;20042;-63
2022/04/08 00:33:58;;;;;;;9.27;2.10;;;7.60;99.90;;;;;;4143067;28;20409;-63
2022/04/08 00:35:59;;;;;;;5.45;1.67;;;7.60;99.90;;;;;;4143409;28;20030;-63
2022/04/08 00:38:00;;;;;;;7.82;1.70;;;7.70;99.90;;;;;;4143880;28;20075;-63
2022/04/08 00:40:01;;;;;;;9.27;1.55;;;7.70;99.90;;;;;;4143896;28;20054;-63
2022/04/08 00:42:02;;;;;;;9.07;1.83;;;7.60;99.90;;;;;;4144075;28;20022;-63
2022/04/08 00:44:02;;;;;;;7.60;1.90;;;7.60;99.90;;;;;;4144009;28;20084;-63
2022/04/08 00:46:04;;;;;;;8.25;2.10;;;7.60;99.90;;;;;;4143892;28;20117;-63
2022/04/08 00:48:07;;;;;;;3.15;1.20;;;7.60;99.90;;;;;;4143814;28;20390;-64
2022/04/08 00:50:09;;;;;;;13.40;2.28;;;7.60;99.90;;;;;;4143361;28;20030;-65
2022/04/08 00:52:10;;;;;;;17.45;2.90;;;7.60;99.90;;;;;;4143987;28;20069;-63
2022/04/08 00:54:11;;;;;;;5.20;1.73;;;7.60;99.90;;;;;;4143794;28;20048;-63
2022/04/08 00:56:12;;;;;;;8.13;2.50;;;7.60;99.90;;;;;;4143153;28;20033;-63
2022/04/08 00:58:13;;;;;;;10.00;2.08;;;7.50;99.90;;;;;;4143671;28;20088;-63
2022/04/08 01:00:14;;;;;;;7.60;1.73;;;7.50;99.90;;;;;;4143091;28;20044;-64
2022/04/08 01:02:15;;;;;;;7.82;2.03;;;7.50;99.90;;;;;;4143608;28;20034;-65
2022/04/08 01:04:15;;;;;;;10.80;2.05;;;7.60;99.90;;;;;;4143557;28;20125;-63
2022/04/08 01:06:16;;;;;;;8.95;2.25;;;7.60;99.90;;;;;;4143091;28;20041;-64
2022/04/08 01:08:17;;;;;;;12.57;2.50;;;7.60;99.90;;;;;;4143957;28;20041;-64
2022/04/08 01:10:17;;;;;;;10.57;2.33;;;7.50;99.90;;;;;;4143411;28;20477;-64
2022/04/08 01:12:19;;;;;;;9.75;2.47;;;7.60;99.90;;;;;;4143890;28;20426;-63
2022/04/08 01:14:19;;;;;;;13.38;3.00;;;7.60;99.90;;;;;;4143633;28;20057;-63
2022/04/08 01:16:20;;;;;;;9.57;2.00;;;7.60;99.90;;;;;;4143687;28;20104;-63
2022/04/08 01:18:21;;;;;;;10.98;2.25;;;7.60;99.90;;;;;;4143862;28;20033;-62
2022/04/08 01:20:22;;;;;;;7.57;2.05;;;7.60;99.90;;;;;;4143042;28;20029;-63
2022/04/08 01:22:24;;;;;;;10.00;2.38;;;7.60;99.90;;;;;;4144608;28;20029;-63
2022/04/08 01:24:27;;;;;;;15.03;2.80;;;7.60;99.90;;;;;;4143941;28;20052;-63
2022/04/08 01:26:28;;;;;;;11.20;2.22;;;7.60;99.90;;;;;;4142846;28;20482;-63
2022/04/08 01:28:29;;;;;;;7.38;1.92;;;7.60;99.90;;;;;;4143459;28;20056;-63
2022/04/08 01:30:29;;;;;;;13.35;2.10;;;7.60;99.90;;;;;;4142336;28;20037;-63
2022/04/08 01:32:30;;;;;;;12.52;2.58;;;7.60;99.90;;;;;;4143937;28;20049;-63
2022/04/08 01:34:31;;;;;;;8.50;1.92;;;7.60;99.90;;;;;;4143229;28;20034;-63
2022/04/08 01:36:31;;;;;;;9.98;2.60;;;7.60;99.90;;;;;;4143135;28;20038;-62
2022/04/08 01:38:32;;;;;;;11.30;2.20;;;7.50;99.90;;;;;;4143885;28;20045;-63
2022/04/08 01:40:33;;;;;;;8.80;1.80;;;7.60;99.90;;;;;;4143354;28;20042;-61
2022/04/08 01:42:34;;;;;;;10.15;2.30;;;7.60;99.90;;;;;;4142132;28;20060;-63
2022/04/08 01:44:38;;;;;;;10.48;1.80;;;7.50;99.90;;;;;;4143288;28;20034;-66
2022/04/08 01:46:38;;;;;;;12.57;2.67;;;7.50;99.90;;;;;;4143044;28;20041;-63
2022/04/08 01:48:39;;;;;;;7.55;1.98;;;7.50;99.90;;;;;;4143528;28;20397;-62
2022/04/08 01:50:40;;;;;;;10.38;2.30;;;7.50;99.90;;;;;;4141882;28;20034;-63
2022/04/08 01:52:40;;;;;;;13.85;2.45;;;7.50;99.90;;;;;;4143553;28;20062;-63
2022/04/08 01:54:41;;;;;;;12.10;2.13;;;7.50;99.90;;;;;;4143623;28;20479;-63
2022/04/08 01:56:41;;;;;;;9.80;2.25;;;7.50;99.90;;;;;;4142664;28;20034;-63
2022/04/08 01:58:42;;;;;;;6.50;1.83;;;7.50;99.90;;;;;;4143574;28;20034;-62
2022/04/08 02:00:43;;;;;;;8.30;2.30;;;7.40;99.90;;;;;;4142732;28;20034;-63
2022/04/08 02:02:44;;;;;;;10.15;2.20;;;7.40;99.90;;;;;;4143914;28;20056;-63
2022/04/08 02:04:44;;;;;;;9.60;2.15;;;7.30;99.90;;;;;;4143054;28;20088;-63
2022/04/08 02:06:45;;;;;;;8.27;1.80;;;7.40;99.90;;;;;;4143045;28;20117;-62
2022/04/08 02:08:46;;;;;;;9.30;2.33;;;7.40;99.90;;;;;;4143779;28;20037;-63
2022/04/08 02:10:46;;;;;;;12.45;2.35;;;7.30;99.90;;;;;;4143199;28;20042;-63
2022/04/08 02:12:47;;;;;;;15.07;2.63;;;7.30;99.90;;;;;;4143046;28;20034;-65
2022/04/08 02:14:48;;;;;;;12.27;2.70;;;7.30;99.90;;;;;;4143345;28;20030;-64
2022/04/08 02:16:48;;;;;;;10.95;2.42;;;7.40;99.90;;;;;;4142744;28;20026;-62
2022/04/08 02:18:49;;;;;;;13.68;3.28;;;7.30;99.90;;;;;;4144283;28;20062;-63
2022/04/08 02:20:51;;;;;;;10.13;2.17;;;7.30;99.90;;;;;;4145725;28;20541;-63
2022/04/08 02:22:51;;;;;;;5.55;1.88;;;7.30;99.90;;;;;;4146332;28;20117;-63
2022/04/08 02:24:52;;;;;;;14.60;2.92;;;7.30;99.90;;;;;;4146150;28;20034;-63
2022/04/08 02:26:53;;;;;;;10.40;2.20;;;7.30;99.90;;;;;;4146013;28;20046;-63
2022/04/08 02:28:54;;;;;;;9.57;2.10;;;7.30;99.90;;;;;;4146237;28;20029;-63
2022/04/08 02:30:55;;;;;;;9.50;2.17;;;7.30;99.90;;;;;;4145978;28;21013;-63
2022/04/08 02:32:57;;;;;;;11.60;2.38;;;7.30;99.90;;;;;;4146729;28;20038;-63
2022/04/08 02:34:58;;;;;;;9.65;2.55;;;7.30;99.90;;;;;;4146147;28;20057;-63
2022/04/08 02:36:58;;;;;;;11.02;2.10;;;7.30;99.90;;;;;;4144535;28;20030;-62
2022/04/08 02:38:59;;;;;;;10.30;2.15;;;7.30;99.90;;;;;;4145980;28;20126;-62
2022/04/08 02:41:00;;;;;;;9.48;2.30;;;7.30;99.90;;;;;;4145734;28;20033;-62
2022/04/08 02:43:01;;;;;;;15.50;2.55;;;7.30;99.90;;;;;;4145949;28;20034;-62
2022/04/08 02:45:02;;;;;;;14.30;2.63;;;7.30;99.90;;;;;;4146384;28;20033;-62
2022/04/08 02:47:03;;;;;;;10.05;2.10;;;7.30;99.90;;;;;;4145511;28;20116;-62
2022/04/08 02:49:03;;;;;;;13.15;2.42;;;7.30;99.90;;;;;;4144422;28;20030;-63
2022/04/08 02:51:04;;;;;;;10.00;2.78;;;7.30;99.90;;;;;;4145296;28;20037;-62
2022/04/08 02:53:05;;;;;;;10.20;2.13;;;7.30;99.90;;;;;;4146233;28;20030;-62
2022/04/08 02:55:06;;;;;;;15.60;3.00;;;7.30;99.90;;;;;;4145415;28;20401;-63
2022/04/08 02:57:06;;;;;;;12.40;2.50;;;7.30;99.90;;;;;;4145701;28;21973;-63
2022/04/08 02:59:08;;;;;;;12.10;2.63;;;7.20;99.90;;;;;;4145755;28;20060;-62
2022/04/08 03:01:10;;;;;;;15.45;2.63;;;7.10;99.90;;;;;;4144948;28;20064;-62
2022/04/08 03:03:10;;;;;;;7.37;2.13;;;7.00;99.90;;;;;;4146395;28;20041;-63
2022/04/08 03:05:11;;;;;;;5.88;1.50;;;7.00;99.90;;;;;;4145133;28;20434;-65
2022/04/08 03:07:12;;;;;;;6.00;1.55;;;7.00;99.90;;;;;;4145778;28;20034;-62
2022/04/08 03:09:13;;;;;;;6.32;1.45;;;6.90;99.90;;;;;;4145931;28;20061;-63
2022/04/08 03:11:13;;;;;;;8.38;1.60;;;6.90;99.90;;;;;;4145315;28;20041;-63
2022/04/08 03:13:14;;;;;;;5.75;1.13;;;6.90;99.90;;;;;;4145830;28;20383;-62
2022/04/08 03:15:14;;;;;;;7.22;1.95;;;6.90;99.90;;;;;;4145211;28;20091;-62
2022/04/08 03:17:15;;;;;;;8.10;1.95;;;6.90;99.90;;;;;;4145508;28;20041;-62
2022/04/08 03:19:18;;;;;;;6.88;1.88;;;6.80;99.90;;;;;;4145824;28;20026;-62
2022/04/08 03:21:19;;;;;;;;;;;6.80;99.90;;;;;;4144972;28;20026;-63
2022/04/08 03:23:19;;;;;;;8.05;1.20;;;6.80;99.90;;;;;;4143940;28;19909;-63
2022/04/08 03:25:20;;;;;;;7.70;1.77;;;6.80;99.90;;;;;;4144485;28;20056;-63
2022/04/08 03:27:20;;;;;;;11.25;2.25;;;6.80;99.90;;;;;;4144932;28;20061;-63
2022/04/08 03:29:21;;;;;;;12.93;2.42;;;6.80;99.90;;;;;;4144949;28;20117;-64
2022/04/08 03:31:22;;;;;;;7.57;1.77;;;6.80;99.90;;;;;;4143470;28;20042;-64
2022/04/08 03:33:23;;;;;;;12.00;2.03;;;6.70;99.90;;;;;;4144735;28;20038;-63
2022/04/08 03:35:23;;;;;;;14.35;2.45;;;6.70;99.90;;;;;;4144464;28;20604;-64
2022/04/08 03:37:26;;;;;;;10.82;2.15;;;6.70;99.90;;;;;;4144517;28;20040;-63
2022/04/08 03:39:26;;;;;;;9.02;1.80;;;6.60;99.90;;;;;;4144606;28;20029;-62
2022/04/08 03:41:27;;;;;;;14.38;1.92;;;6.50;99.90;;;;;;4126732;28;20135;-61
2022/04/08 03:43:28;;;;;;;7.82;1.70;;;6.50;99.90;;;;;;4144847;28;20058;-61
2022/04/08 03:45:29;;;;;;;5.93;1.90;;;6.50;99.90;;;;;;4146652;28;20125;-62
2022/04/08 03:47:29;;;;;;;7.57;1.70;;;6.50;99.90;;;;;;4148677;28;20485;-62
2022/04/08 03:49:33;;;;;;;8.38;2.15;;;6.60;99.90;;;;;;4144904;28;20528;-62
2022/04/08 03:51:34;;;;;;;5.13;1.52;;;6.60;99.90;;;;;;4143956;28;20045;-63
2022/04/08 03:53:34;;;;;;;9.70;1.92;;;6.50;99.90;;;;;;4144476;28;20045;-62
2022/04/08 03:55:36;;;;;;;8.48;1.95;;;6.60;99.90;;;;;;4143595;28;20030;-62
2022/04/08 03:57:36;;;;;;;9.40;2.08;;;6.60;99.90;;;;;;4144142;28;20117;-64
2022/04/08 03:59:37;;;;;;;7.22;1.83;;;6.60;99.90;;;;;;4144709;28;20041;-63
2022/04/08 04:01:38;;;;;;;10.30;2.40;;;6.70;99.90;;;;;;4143311;28;20038;-63
2022/04/08 04:03:38;;;;;;;9.85;2.30;;;6.70;99.90;;;;;;4144130;28;20093;-63
2022/04/08 04:05:39;;;;;;;11.25;2.10;;;6.60;99.90;;;;;;4144065;28;20137;-63
2022/04/08 04:07:39;;;;;;;15.68;2.50;;;6.60;99.90;;;;;;4144642;28;20033;-63
2022/04/08 04:09:40;;;;;;;11.60;2.20;;;6.60;99.90;;;;;;4146625;28;20026;-63
2022/04/08 04:11:41;;;;;;;8.73;1.90;;;6.60;99.90;;;;;;4152027;28;20026;-63
2022/04/08 04:13:42;;;;;;;7.60;1.60;;;6.60;99.90;;;;;;4149046;28;20092;-63
2022/04/08 04:15:42;;;;;;;10.15;2.10;;;6.60;99.90;;;;;;4134369;28;20101;-61
2022/04/08 04:17:43;;;;;;;10.00;1.90;;;6.50;99.90;;;;;;4146170;28;20500;-62
2022/04/08 04:19:44;;;;;;;8.55;2.10;;;6.50;99.90;;;;;;4146972;28;20065;-62
2022/04/08 04:21:45;;;;;;;7.93;2.35;;;6.50;99.90;;;;;;4148945;28;20081;-62
2022/04/08 04:23:45;;;;;;;7.35;1.65;;;6.60;99.90;;;;;;4151459;28;20033;-62
2022/04/08 04:25:46;;;;;;;7.45;1.60;;;6.60;99.90;;;;;;4147341;28;20038;-62
2022/04/08 04:27:47;;;;;;;7.20;1.50;;;6.50;99.90;;;;;;4150188;28;20503;-62
2022/04/08 04:29:47;;;;;;;4.45;1.52;;;6.50;99.90;;;;;;4151685;28;20457;-62
2022/04/08 04:31:48;;;;;;;6.85;1.80;;;6.60;99.90;;;;;;4149430;28;20033;-62
2022/04/08 04:33:48;;;;;;;7.55;1.70;;;6.60;99.90;;;;;;4148148;28;20456;-62
2022/04/08 04:35:49;;;;;;;8.32;2.05;;;6.60;99.90;;;;;;4140521;28;20038;-65
2022/04/08 04:37:49;;;;;;;8.82;2.03;;;6.60;99.90;;;;;;4141070;28;20057;-64
2022/04/08 04:39:50;;;;;;;6.88;2.08;;;6.50;99.90;;;;;;4141455;28;20046;-63
2022/04/08 04:41:50;;;;;;;9.52;2.20;;;6.50;99.90;;;;;;4143621;28;20402;-64
2022/04/08 04:43:51;;;;;;;10.10;2.33;;;6.50;99.90;;;;;;4141202;28;20117;-62
2022/04/08 04:45:52;;;;;;;6.45;2.03;;;6.50;99.90;;;;;;4140627;28;20045;-63
2022/04/08 04:47:52;;;;;;;6.38;1.70;;;6.50;99.90;;;;;;4143064;28;20042;-62
2022/04/08 04:49:53;;;;;;;5.07;1.63;;;6.50;99.90;;;;;;4134786;28;20045;-62
2022/04/08 04:51:53;;;;;;;11.05;2.15;;;6.50;99.90;;;;;;4142459;28;20038;-63
2022/04/08 04:53:54;;;;;;;5.90;1.75;;;6.60;99.90;;;;;;4142214;28;20041;-62
2022/04/08 04:55:55;;;;;;;12.68;2.75;;;6.60;99.90;;;;;;4139957;28;20038;-62
2022/04/08 04:57:56;;;;;;;7.57;2.13;;;6.60;99.90;;;;;;4140279;28;20030;-63
2022/04/08 04:59:56;;;;;;;8.77;2.38;;;6.50;99.90;;;;;;4140830;28;20121;-62
2022/04/08 05:01:57;;;;;;;9.57;2.60;;;6.50;99.90;;;;;;4140697;28;20046;-63
2022/04/08 05:03:58;;;;;;;8.00;2.30;;;6.60;99.90;;;;;;4140454;28;20040;-62
2022/04/08 05:05:58;;;;;;;8.73;3.03;;;6.60;99.90;;;;;;4139890;28;20030;-62
2022/04/08 05:08:07;;;;;;;7.15;2.70;;;6.60;99.90;;;;;;4140475;28;20125;-62
2022/04/08 05:10:08;;;;;;;6.82;2.50;;;6.50;99.90;;;;;;4123153;28;20022;-64
2022/04/08 05:12:09;;;;;;;8.25;2.90;;;6.60;99.90;;;;;;4139798;28;20076;-63
2022/04/08 05:14:10;;;;;;;9.27;2.65;;;6.60;99.90;;;;;;4140416;28;20509;-62
2022/04/08 05:16:10;;;;;;;8.20;2.58;;;6.60;99.90;;;;;;4139828;28;20037;-62
2022/04/08 05:18:14;;;;;;;8.10;2.95;;;6.60;99.90;;;;;;4140466;28;20034;-62
2022/04/08 05:20:15;;;;;;;14.40;2.85;;;6.60;99.90;;;;;;4139368;28;20037;-63
2022/04/08 05:22:16;;;;;;;5.95;2.58;;;6.60;99.90;;;;;;4139302;28;20722;-63
2022/04/08 05:24:17;;;;;;;7.32;2.30;;;6.60;99.90;;;;;;4140063;28;20065;-63
2022/04/08 05:26:18;;;;;;;8.10;2.53;;;6.60;99.90;;;;;;4139401;28;20108;-63
2022/04/08 05:28:19;;;;;;;7.22;3.13;;;6.60;99.90;;;;;;4143526;28;20033;-62
2022/04/08 05:30:20;;;;;;;8.90;2.97;;;6.60;99.90;;;;;;4139786;28;20040;-62
2022/04/08 05:32:20;;;;;;;7.32;2.47;;;6.60;99.90;;;;;;4139036;28;20038;-63
2022/04/08 05:34:21;;;;;;;5.70;2.47;;;6.60;99.90;;;;;;4139744;28;20049;-63
2022/04/08 05:36:21;;;;;;;7.03;3.28;;;6.70;99.90;;;;;;4139962;28;20061;-63
2022/04/08 05:38:22;;;;;;;12.65;3.05;;;6.70;99.90;;;;;;4140113;28;20644;-64
2022/04/08 05:40:23;;;;;;;6.07;2.33;;;6.70;99.90;;;;;;4139668;28;20045;-63
2022/04/08 05:42:23;;;;;;;10.60;3.70;;;6.70;99.90;;;;;;4139693;28;20124;-63
2022/04/08 05:44:24;;;;;;;12.13;3.67;;;6.80;99.90;;;;;;4140127;28;20681;-63
2022/04/08 05:46:24;;;;;;;7.22;3.35;;;6.80;99.90;;;;;;4139781;28;20038;-63
2022/04/08 05:48:25;;;;;;;5.60;2.97;;;6.80;99.90;;;;;;4140133;28;20448;-63
2022/04/08 05:50:26;;;;;;;8.13;2.97;;;6.80;99.90;;;;;;4138467;28;20579;-63
2022/04/08 05:52:26;;;;;;;7.22;2.90;;;6.90;99.90;;;;;;4139914;28;20416;-63
2022/04/08 05:54:27;;;;;;;9.85;3.30;;;6.90;99.90;;;;;;4140375;28;20417;-63
2022/04/08 05:56:28;;;;;;;10.07;3.60;;;6.90;99.90;;;;;;4143069;28;20034;-63
2022/04/08 05:58:29;;;;;;;7.07;3.13;;;7.00;99.90;;;;;;4143388;28;20083;-63
2022/04/08 06:00:33;;;;;;;5.82;3.13;;;7.00;99.90;;;;;;4143120;28;20042;-63
2022/04/08 06:02:34;;;;;;;6.93;3.28;;;7.00;99.90;;;;;;4143469;28;20050;-62
2022/04/08 06:04:35;;;;;;;7.85;3.72;;;7.00;99.90;;;;;;4143139;28;20088;-63
2022/04/08 06:06:38;;;;;;;9.68;4.05;;;7.10;99.90;;;;;;4142020;28;20398;-63
2022/04/08 06:08:39;;;;;;;8.55;4.03;;;7.00;99.90;;;;;;4142841;28;20092;-64
2022/04/08 06:10:39;;;;;;;10.60;4.80;;;7.00;99.90;;;;;;4142791;28;20100;-62
2022/04/08 06:12:40;;;;;;;8.27;4.22;;;7.00;99.90;;;;;;4143286;28;20036;-63
2022/04/08 06:14:41;;;;;;;8.65;4.70;;;7.00;99.90;;;;;;4125396;28;20093;-62
2022/04/08 06:16:42;;;;;;;11.23;4.82;;;7.10;99.90;;;;;;4124887;28;20042;-63
2022/04/08 06:18:43;;;;;;;10.02;5.32;;;7.10;99.90;;;;;;4143083;28;20108;-62
2022/04/08 06:20:44;;;;;;;11.18;5.45;;;7.10;99.90;;;;;;4142800;28;20034;-62
2022/04/08 06:22:47;;;;;;;7.63;5.00;;;7.10;99.90;;;;;;4142937;28;20596;-62
2022/04/08 06:24:48;;;;;;;12.75;6.43;;;7.20;99.90;;;;;;4142491;28;20053;-63
2022/04/08 06:26:48;;;;;;;8.93;5.13;;;7.30;99.90;;;;;;4142999;28;20038;-63
2022/04/08 06:28:49;;;;;;;9.90;5.22;;;7.30;99.90;;;;;;4142784;28;20030;-62
2022/04/08 06:30:49;;;;;;;9.55;5.03;;;7.40;99.90;;;;;;4142727;28;20030;-62
2022/04/08 06:32:50;;;;;;;11.00;5.82;;;7.50;99.90;;;;;;4142989;28;20030;-62
2022/04/08 06:34:51;;;;;;;14.15;6.97;;;7.60;99.90;;;;;;4142602;28;20044;-65
2022/04/08 06:36:51;;;;;;;10.95;5.72;;;7.80;99.90;;;;;;4140793;28;20057;-64
2022/04/08 06:38:52;;;;;;;10.65;5.38;;;8.00;99.90;;;;;;4141826;28;20034;-63
2022/04/08 06:40:52;;;;;;;9.75;5.43;;;8.20;99.90;;;;;;4141795;28;20038;-63
2022/04/08 06:42:59;;;;;;;10.63;6.00;;;8.40;99.90;;;;;;4136700;28;20045;-63
2022/04/08 06:45:00;;;;;;;10.93;5.90;;;8.60;99.90;;;;;;4142230;28;20132;-63
2022/04/08 06:47:01;;;;;;;11.15;5.40;;;8.70;99.90;;;;;;4138427;28;20041;-62
2022/04/08 06:49:02;;;;;;;11.60;5.35;;;8.80;99.90;;;;;;4140928;28;20418;-62
2022/04/08 06:51:04;;;;;;;9.35;4.90;;;8.90;99.90;;;;;;4138510;28;20128;-62
2022/04/08 06:53:05;;;;;;;13.25;6.30;;;9.10;99.90;;;;;;4142859;28;20076;-62
2022/04/08 06:55:07;;;;;;;9.68;5.18;;;9.20;99.90;;;;;;4142021;28;20382;-65
2022/04/08 06:57:08;;;;;;;9.55;5.65;;;9.30;99.90;;;;;;4142015;28;20034;-63
2022/04/08 06:59:08;;;;;;;8.43;5.20;;;9.30;99.90;;;;;;4141350;28;20029;-64
2022/04/08 07:01:09;;;;;;;10.15;4.95;;;9.40;99.90;;;;;;4141610;28;20537;-63
2022/04/08 07:03:10;;;;;;;9.43;5.00;;;9.40;99.90;;;;;;4142166;28;20042;-63
2022/04/08 07:05:11;;;;;;;10.57;5.45;;;9.50;99.90;;;;;;4140883;28;20115;-65
2022/04/08 07:07:11;;;;;;;6.85;4.47;;;9.70;99.90;;;;;;4142097;28;20037;-63
2022/04/08 07:09:12;;;;;;;6.82;5.00;;;9.80;99.90;;;;;;4142033;28;20464;-63
2022/04/08 07:11:13;;;;;;;9.07;4.43;;;10.00;99.90;;;;;;4140718;28;20029;-63
2022/04/08 07:13:13;;;;;;;8.05;4.90;;;10.10;99.90;;;;;;4141958;28;20034;-63
2022/04/08 07:15:14;;;;;;;11.00;5.32;;;10.20;99.90;;;;;;4141116;28;20041;-63
2022/04/08 07:17:15;;;;;;;9.35;4.82;;;10.20;99.90;;;;;;4141576;28;20041;-63
2022/04/08 07:19:15;;;;;;;9.70;4.97;;;10.00;99.90;;;;;;4141832;28;20030;-63
2022/04/08 07:21:16;;;;;;;9.02;4.32;;;9.90;99.90;;;;;;4140544;28;20033;-63
2022/04/08 07:23:17;;;;;;;7.68;4.03;;;9.80;99.90;;;;;;4141880;28;20477;-63
2022/04/08 07:25:18;;;;;;;7.70;3.60;;;9.80;99.90;;;;;;4140611;28;20042;-63
2022/04/08 07:27:19;;;;;;;11.40;3.58;;;9.70;99.90;;;;;;4141752;28;20319;-63
2022/04/08 07:29:20;;;;;;;8.95;3.70;;;9.70;99.90;;;;;;4141693;28;20115;-63
2022/04/08 07:31:21;;;;;;;9.00;4.03;;;9.70;99.90;;;;;;4140743;28;20041;-63
2022/04/08 07:33:21;;;;;;;7.68;3.85;;;9.60;99.90;;;;;;4141051;28;20513;-63
2022/04/08 07:35:25;;;;;;;6.90;3.60;;;9.60;99.90;;;;;;4139822;28;20057;-64
2022/04/08 07:37:30;;;;;;;4.80;3.33;;;9.50;99.90;;;;;;4141370;28;20034;-63
2022/04/08 07:39:32;;;;;;;6.45;3.13;;;9.50;99.90;;;;;;4141613;28;20042;-62
2022/04/08 07:41:32;;;;;;;5.25;3.30;;;9.50;99.90;;;;;;4140616;28;20044;-63
2022/04/08 07:43:33;;;;;;;8.60;3.35;;;9.50;99.90;;;;;;4140993;28;20042;-63
2022/04/08 07:45:34;;;;;;;7.25;3.67;;;9.50;99.90;;;;;;4140449;28;20053;-62
2022/04/08 07:47:35;;;;;;;10.07;4.35;;;9.40;99.90;;;;;;4141525;28;20520;-63
2022/04/08 07:49:36;;;;;;;7.28;3.67;;;9.50;99.90;;;;;;4156450;28;20068;-62
2022/04/08 07:51:36;;;;;;;8.25;4.13;;;9.40;99.90;;;;;;4140675;28;20393;-63
2022/04/08 07:53:37;;;;;;;9.45;3.13;;;9.40;99.90;;;;;;4141086;28;20033;-63
2022/04/08 07:55:39;;;;;;;6.05;3.33;;;9.40;99.90;;;;;;4140948;28;20046;-62
2022/04/08 07:57:47;;;;;;;10.45;3.63;;;9.30;99.90;;;;;;4141685;28;20429;-65
2022/04/08 07:59:48;;;;;;;7.22;3.15;;;9.40;99.90;;;;;;4140763;28;20363;-63
2022/04/08 08:01:48;;;;;;;9.63;3.67;;;9.30;99.90;;;;;;4140582;28;20097;-63
2022/04/08 08:03:49;;;;;;;6.78;2.97;;;9.30;99.90;;;;;;4141577;28;20038;-63
2022/04/08 08:05:52;;;;;;;3.75;2.67;;;9.30;99.90;;;;;;4140289;28;20026;-63
2022/04/08 08:07:54;;;;;;;5.65;3.22;;;9.40;99.90;;;;;;4141037;28;20729;-63
2022/04/08 08:09:55;;;;;;;7.68;3.70;;;9.40;99.90;;;;;;4141305;28;20037;-64
2022/04/08 08:11:55;;;;;;;6.57;3.65;;;9.30;99.90;;;;;;4140339;28;20038;-63
2022/04/08 08:13:57;;;;;;;8.45;3.65;;;9.30;99.90;;;;;;4141270;28;20092;-63
2022/04/08 08:15:58;;;;;;;8.43;3.17;;;9.30;99.90;;;;;;4140105;28;20957;-63
2022/04/08 08:17:59;;;;;;;5.55;2.78;;;9.20;99.90;;;;;;4140961;28;20038;-63
2022/04/08 08:20:00;;;;;;;6.88;3.15;;;9.20;99.90;;;;;;4141331;28;20038;-63
2022/04/08 08:22:00;;;;;;;5.78;3.30;;;9.20;99.90;;;;;;4140216;28;20399;-63
2022/04/08 08:24:01;;;;;;;5.43;2.92;;;9.20;99.90;;;;;;4139222;28;20037;-62
2022/04/08 08:26:01;;;;;;;9.82;3.00;;;9.20;99.90;;;;;;4139992;28;20048;-62
2022/04/08 08:28:02;;;;;;;6.80;2.90;;;9.20;99.90;;;;;;4140861;28;20506;-63
2022/04/08 08:30:04;;;;;;;7.32;3.45;;;9.20;99.90;;;;;;4140868;28;20060;-63
2022/04/08 08:32:04;;;;;;;4.82;2.33;;;9.10;99.90;;;;;;4140184;28;20097;-63
2022/04/08 08:34:05;;;;;;;6.47;2.78;;;9.10;99.90;;;;;;4140321;28;20449;-63
2022/04/08 08:36:07;;;;;;;4.85;2.60;;;9.10;99.90;;;;;;4140088;28;20033;-63
2022/04/08 08:38:08;;;;;;;10.18;2.90;;;9.20;99.90;;;;;;4140856;28;20505;-63
2022/04/08 08:40:11;;;;;;;7.80;2.72;;;9.10;99.90;;;;;;4140199;28;20026;-66
2022/04/08 08:42:13;;;;;;;4.10;2.20;;;9.20;99.90;;;;;;4139629;28;20105;-63
2022/04/08 08:44:14;;;;;;;6.05;2.05;;;9.20;99.90;;;;;;4140076;28;20113;-62
2022/04/08 08:46:16;;;;;;;7.95;2.67;;;9.20;99.90;;;;;;4140442;28;20100;-63
2022/04/08 08:48:16;;;;;;;4.47;2.92;;;9.30;99.90;;;;;;4140872;28;20037;-63
2022/04/08 08:50:18;;;;;;;5.38;2.20;;;9.20;99.90;;;;;;4140144;28;20041;-63
2022/04/08 08:52:18;;;;;;;6.07;2.25;;;9.20;99.90;;;;;;4140169;28;20053;-63
2022/04/08 08:54:19;;;;;;;5.18;2.20;;;9.20;99.90;;;;;;4140445;28;20567;-63
2022/04/08 08:56:20;;;;;;;5.45;2.60;;;9.30;99.90;;;;;;4139778;28;20683;-62
2022/04/08 08:58:21;;;;;;;7.15;2.70;;;9.20;99.90;;;;;;4140720;28;20034;-63
2022/04/08 09:00:23;;;;;;;9.50;2.75;;;9.20;99.90;;;;;;4139682;28;20068;-63
2022/04/08 09:02:23;;;;;;;4.90;2.50;;;9.10;99.90;;;;;;4140249;28;20046;-64
2022/04/08 09:04:26;;;;;;;5.13;2.20;;;9.20;99.90;;;;;;4140546;28;20053;-63
2022/04/08 09:06:26;;;;;;;4.88;2.40;;;9.10;99.90;;;;;;4140707;28;20121;-63
2022/04/08 09:08:32;;;;;;;6.93;2.20;;;9.20;99.90;;;;;;4140671;28;20069;-63
2022/04/08 09:10:36;;;;;;;5.45;2.28;;;9.20;99.90;;;;;;4140153;28;20494;-63
2022/04/08 09:12:37;;;;;;;3.67;1.98;;;9.20;99.90;;;;;;4139465;28;20061;-63
2022/04/08 09:14:38;;;;;;;6.40;2.30;;;9.30;99.90;;;;;;4139023;28;20038;-63
2022/04/08 09:16:39;;;;;;;5.43;2.33;;;9.30;99.90;;;;;;4140629;28;20042;-63
2022/04/08 09:18:44;;;;;;;5.70;2.35;;;9.30;99.90;;;;;;4140061;28;20426;-63
2022/04/08 09:20:46;;;;;;;5.70;2.38;;;9.40;99.90;;;;;;4138867;28;20046;-63
2022/04/08 09:22:55;;;;;;;5.93;2.25;;;9.40;99.90;;;;;;4140561;28;20133;-63
2022/04/08 09:25:10;;;;;;;7.40;2.55;;;9.30;99.90;;;;;;4141072;28;21105;-63
2022/04/08 09:27:11;;;;;;;4.93;2.65;;;9.40;99.90;;;;;;4138109;28;20561;-63
2022/04/08 09:29:13;;;;;;;4.32;1.92;;;9.40;99.90;;;;;;4138213;28;20034;-64
2022/04/08 09:31:22;;;;;;;6.53;2.33;;;9.40;99.90;;;;;;4139527;28;20073;-63
2022/04/08 09:33:25;;;;;;;4.25;2.05;;;9.40;99.90;;;;;;4139157;28;20069;-63
2022/04/08 09:35:26;;;;;;;6.47;2.22;;;9.40;99.90;;;;;;4152415;28;20401;-63
2022/04/08 09:37:28;;;;;;;6.95;2.50;;;9.40;99.90;;;;;;4139461;28;20042;-63
2022/04/08 09:39:29;;;;;;;3.80;2.20;;;9.40;99.90;;;;;;4138971;28;20094;-63
2022/04/08 09:41:56;;;;;;;3.60;2.50;;;9.40;99.90;;;;;;4136874;28;20064;-63
2022/04/08 09:43:59;;;;;;;4.68;2.22;;;9.30;99.90;;;;;;4136010;28;20042;-64
2022/04/08 09:46:17;;;;;;;5.15;2.45;;;9.40;99.90;;;;;;4142532;28;20069;-63
2022/04/08 09:48:18;;;;;;;6.07;2.05;;;9.40;99.90;;;;;;4139699;28;20430;-63
2022/04/08 09:50:18;;;;;;;4.97;1.92;;;9.40;99.90;;;;;;4138453;28;20054;-63
2022/04/08 09:52:21;;;;;;;5.13;1.88;;;9.40;99.90;;;;;;4139007;28;20575;-63
2022/04/08 09:54:22;;;;;;;7.47;2.58;;;9.40;99.90;;;;;;4138731;28;20045;-63
2022/04/08 09:56:25;;;;;;;5.03;1.90;;;9.40;99.90;;;;;;4136603;28;20687;-63
2022/04/08 09:58:27;;;;;;;4.13;1.90;;;9.40;99.90;;;;;;4138212;28;20041;-63
2022/04/08 10:00:28;;;;;;;10.45;1.77;;;9.40;99.90;;;;;;4138329;28;20042;-63
2022/04/08 10:02:29;;;;;;;3.33;1.50;;;9.40;99.90;;;;;;4138301;28;20038;-63
2022/04/08 10:04:30;;;;;;;7.40;1.60;;;9.50;99.90;;;;;;4137420;28;20034;-63
2022/04/08 10:06:31;;;;;;;5.40;2.00;;;9.50;99.90;;;;;;4138853;28;20690;-63
2022/04/08 10:08:33;;;;;;;3.45;1.50;;;9.50;99.90;;;;;;4139427;28;20042;-63
2022/04/08 10:10:51;;;;;;;3.97;1.50;;;9.50;99.90;;;;;;4137547;28;20490;-63
2022/04/08 10:13:10;;;;;;;4.60;2.00;;;9.60;99.90;;;;;;4138676;28;20523;-63
2022/04/08 10:15:19;;;;;;;4.95;1.52;;;9.50;99.90;;;;;;4137404;28;20034;-63
2022/04/08 10:17:20;;;;;;;3.83;1.40;;;9.60;99.90;;;;;;4154267;28;20086;-63
2022/04/08 10:19:24;;;;;;;5.25;1.48;;;9.60;99.90;;;;;;4139227;28;20397;-63
2022/04/08 10:21:35;;;;;;;4.40;1.42;;;9.60;99.90;;;;;;4138953;28;20049;-63
2022/04/08 10:23:45;;;;;;;3.05;1.52;;;9.60;99.90;;;;;;4139070;28;20030;-63
2022/04/08 10:25:51;;;;;;;5.10;1.65;;;9.70;99.90;;;;;;4136275;28;20049;-63
2022/04/08 10:27:58;;;;;;;2.42;1.52;;;9.70;99.90;;;;;;4139086;28;20112;-63
2022/04/08 10:29:59;;;;;;;4.32;1.80;;;9.60;99.90;;;;;;4139285;28;20044;-63
2022/04/08 10:32:14;;;;;;;6.45;1.65;;;9.70;99.90;;;;;;4138733;28;20710;-63
2022/04/08 10:34:16;;;;;;;2.78;1.30;;;9.60;99.90;;;;;;4138304;28;20034;-64
2022/04/08 10:36:17;;;;;;;3.28;1.55;;;9.60;99.90;;;;;;4137979;28;20030;-64
2022/04/08 10:38:18;;;;;;;2.67;1.35;;;9.70;99.90;;;;;;4137389;28;20523;-63
2022/04/08 10:40:20;;;;;;;3.20;1.70;;;9.70;99.90;;;;;;4139888;28;20031;-63